BTY25KF GCRR-LEZL
Flight info
| Callsign | BTY25KF |
|---|---|
| Flight time | 1h 34m |
| Altitude | 38000 |
| Route | KORAL UG5 SONSO DCT NIRAL UN871 ADUBI DCT VJF |
| Aircraft | B738/M-SDE2E3FGHIRWXY/LB1 |
Departure
| Time | 2026-04-23 18:45 |
|---|---|
| Airport | César Manrique-Lanzarote Airport (GCRR) |
Arrival
| Time | 2026-04-23 20:20 |
|---|---|
| Airport | Seville Airport (LEZL) |
| Time | Latitude | Longitude | Altitude | Speed | Heading |
|---|---|---|---|---|---|
| 2026-04-23 18:11 | 28.95089 | -13.60706 | 49 ft | 0 kts | 296° |
| 2026-04-23 18:22 | 28.95089 | -13.60705 | 49 ft | 0 kts | 296° |
| 2026-04-23 18:32 | 28.95088 | -13.60703 | 49 ft | 1 kts | 296° |
| 2026-04-23 18:32 | 28.95080 | -13.60685 | 49 ft | 3 kts | 296° |
| 2026-04-23 18:32 | 28.95071 | -13.60664 | 45 ft | 3 kts | 296° |
| 2026-04-23 18:32 | 28.95062 | -13.60646 | 45 ft | 3 kts | 294° |
| 2026-04-23 18:33 | 28.95057 | -13.60625 | 47 ft | 3 kts | 263° |
| 2026-04-23 18:33 | 28.95063 | -13.60604 | 47 ft | 3 kts | 234° |
| 2026-04-23 18:33 | 28.95070 | -13.60593 | 45 ft | 0 kts | 224° |
| 2026-04-23 18:33 | 28.95071 | -13.60593 | 45 ft | 2 kts | 224° |
| 2026-04-23 18:34 | 28.95070 | -13.60594 | 45 ft | 0 kts | 224° |
| 2026-04-23 18:34 | 28.95069 | -13.60595 | 43 ft | 0 kts | 224° |
| 2026-04-23 18:35 | 28.95068 | -13.60596 | 43 ft | 2 kts | 224° |
| 2026-04-23 18:35 | 28.95040 | -13.60621 | 47 ft | 8 kts | 216° |
| 2026-04-23 18:35 | 28.94982 | -13.60652 | 49 ft | 11 kts | 205° |
| 2026-04-23 18:36 | 28.94909 | -13.60664 | 49 ft | 10 kts | 137° |
| 2026-04-23 18:36 | 28.94870 | -13.60584 | 49 ft | 13 kts | 123° |
| 2026-04-23 18:36 | 28.94801 | -13.60585 | 47 ft | 12 kts | 207° |
| 2026-04-23 18:36 | 28.94709 | -13.60636 | 27 ft | 18 kts | 206° |
| 2026-04-23 18:37 | 28.94584 | -13.60708 | 41 ft | 22 kts | 207° |
| 2026-04-23 18:37 | 28.94434 | -13.60794 | 31 ft | 26 kts | 207° |
| 2026-04-23 18:37 | 28.94278 | -13.60885 | 28 ft | 24 kts | 208° |
| 2026-04-23 18:37 | 28.94132 | -13.60970 | 29 ft | 23 kts | 207° |
| 2026-04-23 18:38 | 28.93992 | -13.61051 | 24 ft | 22 kts | 207° |
| 2026-04-23 18:38 | 28.93856 | -13.61129 | 25 ft | 22 kts | 207° |
| 2026-04-23 18:38 | 28.93730 | -13.61203 | 23 ft | 15 kts | 207° |
| 2026-04-23 18:38 | 28.93662 | -13.61214 | 24 ft | 4 kts | 144° |
| 2026-04-23 18:39 | 28.93661 | -13.61213 | 24 ft | 0 kts | 143° |
| 2026-04-23 18:40 | 28.93661 | -13.61214 | 24 ft | 0 kts | 143° |
| 2026-04-23 18:43 | 28.93662 | -13.61214 | 24 ft | 0 kts | 143° |
| 2026-04-23 18:43 | 28.93657 | -13.61209 | 23 ft | 4 kts | 136° |
| 2026-04-23 18:43 | 28.93629 | -13.61157 | 23 ft | 9 kts | 116° |
| 2026-04-23 18:44 | 28.93607 | -13.61090 | 22 ft | 9 kts | 107° |
| 2026-04-23 18:44 | 28.93620 | -13.61058 | 25 ft | 3 kts | 30° |
| 2026-04-23 18:44 | 28.93637 | -13.61048 | 25 ft | 3 kts | 27° |
| 2026-04-23 18:44 | 28.93687 | -13.61018 | 24 ft | 27 kts | 27° |
| 2026-04-23 18:45 | 28.94092 | -13.60786 | 27 ft | 101 kts | 27° |
| 2026-04-23 18:45 | 28.94906 | -13.60316 | 109 ft | 153 kts | 24° |
| 2026-04-23 18:45 | 28.95837 | -13.59696 | 817 ft | 157 kts | 31° |
| 2026-04-23 18:45 | 28.96685 | -13.58922 | 1679 ft | 156 kts | 34° |
| 2026-04-23 18:46 | 28.97570 | -13.58149 | 2336 ft | 170 kts | 32° |
| 2026-04-23 18:46 | 28.98624 | -13.57281 | 2666 ft | 201 kts | 31° |
| 2026-04-23 18:46 | 28.99853 | -13.56290 | 2893 ft | 229 kts | 31° |
| 2026-04-23 18:46 | 29.01139 | -13.55139 | 3415 ft | 250 kts | 43° |
| 2026-04-23 18:47 | 29.02262 | -13.53536 | 4125 ft | 263 kts | 49° |
| 2026-04-23 18:47 | 29.03407 | -13.51855 | 4893 ft | 273 kts | 47° |
| 2026-04-23 18:47 | 29.04586 | -13.50160 | 5798 ft | 274 kts | 47° |
| 2026-04-23 18:47 | 29.05796 | -13.48443 | 6605 ft | 280 kts | 48° |
| 2026-04-23 18:48 | 29.07020 | -13.46715 | 7433 ft | 282 kts | 47° |
| 2026-04-23 18:48 | 29.08275 | -13.44954 | 8130 ft | 290 kts | 48° |
| 2026-04-23 18:48 | 29.09609 | -13.43185 | 8822 ft | 296 kts | 37° |
| 2026-04-23 18:48 | 29.11373 | -13.42010 | 9593 ft | 295 kts | 21° |
| 2026-04-23 18:49 | 29.13259 | -13.41033 | 10331 ft | 301 kts | 20° |
| 2026-04-23 18:49 | 29.15235 | -13.40012 | 10605 ft | 325 kts | 21° |
| 2026-04-23 18:49 | 29.17361 | -13.38899 | 10867 ft | 345 kts | 21° |
| 2026-04-23 18:49 | 29.19577 | -13.37721 | 11416 ft | 356 kts | 21° |
| 2026-04-23 18:50 | 29.21067 | -13.36923 | 11827 ft | 358 kts | 21° |
| 2026-04-23 18:50 | 29.24095 | -13.35296 | 12059 ft | 361 kts | 21° |
| 2026-04-23 18:50 | 29.26355 | -13.34033 | 12065 ft | 363 kts | 27° |
| 2026-04-23 18:50 | 29.28249 | -13.32111 | 12093 ft | 369 kts | 50° |
| 2026-04-23 18:51 | 29.29745 | -13.29707 | 12079 ft | 372 kts | 53° |
| 2026-04-23 18:51 | 29.31191 | -13.27250 | 12082 ft | 373 kts | 54° |
| 2026-04-23 18:51 | 29.32648 | -13.24787 | 12071 ft | 374 kts | 53° |
| 2026-04-23 18:51 | 29.34125 | -13.22336 | 12065 ft | 373 kts | 53° |
| 2026-04-23 18:52 | 29.35587 | -13.19932 | 12076 ft | 372 kts | 53° |
| 2026-04-23 18:52 | 29.37088 | -13.17470 | 12068 ft | 371 kts | 53° |
| 2026-04-23 18:52 | 29.38567 | -13.15045 | 12075 ft | 371 kts | 53° |
| 2026-04-23 18:52 | 29.40041 | -13.12624 | 12065 ft | 370 kts | 53° |
| 2026-04-23 18:53 | 29.41494 | -13.10236 | 12082 ft | 370 kts | 53° |
| 2026-04-23 18:53 | 29.42983 | -13.07786 | 12069 ft | 370 kts | 53° |
| 2026-04-23 18:53 | 29.44433 | -13.05399 | 12071 ft | 370 kts | 53° |
| 2026-04-23 18:53 | 29.45923 | -13.02945 | 12072 ft | 370 kts | 53° |
| 2026-04-23 18:54 | 29.47373 | -13.00555 | 12091 ft | 371 kts | 53° |
| 2026-04-23 18:54 | 29.48859 | -12.98101 | 12507 ft | 378 kts | 53° |
| 2026-04-23 18:54 | 29.50364 | -12.95614 | 13259 ft | 380 kts | 53° |
| 2026-04-23 18:54 | 29.51876 | -12.93111 | 14003 ft | 383 kts | 53° |
| 2026-04-23 18:55 | 29.53405 | -12.90577 | 14636 ft | 388 kts | 53° |
| 2026-04-23 18:55 | 29.54949 | -12.88017 | 15263 ft | 392 kts | 53° |
| 2026-04-23 18:55 | 29.56511 | -12.85426 | 15889 ft | 397 kts | 53° |
| 2026-04-23 18:55 | 29.58091 | -12.82804 | 16515 ft | 401 kts | 53° |
| 2026-04-23 18:56 | 29.59146 | -12.81052 | 16925 ft | 404 kts | 53° |
| 2026-04-23 18:56 | 29.61301 | -12.77471 | 17755 ft | 410 kts | 53° |
| 2026-04-23 18:56 | 29.62936 | -12.74752 | 18270 ft | 417 kts | 54° |
| 2026-04-23 18:56 | 29.64597 | -12.71987 | 18773 ft | 422 kts | 53° |
| 2026-04-23 18:57 | 29.66272 | -12.69198 | 19346 ft | 425 kts | 53° |
| 2026-04-23 18:57 | 29.67956 | -12.66390 | 19906 ft | 428 kts | 52° |
| 2026-04-23 18:57 | 29.69652 | -12.63561 | 20451 ft | 431 kts | 52° |
| 2026-04-23 18:57 | 29.71363 | -12.60707 | 20963 ft | 435 kts | 52° |
| 2026-04-23 18:58 | 29.73087 | -12.57829 | 21477 ft | 439 kts | 51° |
| 2026-04-23 18:58 | 29.74821 | -12.54921 | 21972 ft | 443 kts | 51° |
| 2026-04-23 18:58 | 29.76568 | -12.51979 | 22477 ft | 447 kts | 51° |
| 2026-04-23 18:58 | 29.78323 | -12.49017 | 22960 ft | 450 kts | 51° |
| 2026-04-23 18:59 | 29.80095 | -12.46024 | 23439 ft | 454 kts | 50° |
| 2026-04-23 18:59 | 29.81877 | -12.43009 | 23898 ft | 457 kts | 50° |
| 2026-04-23 18:59 | 29.83671 | -12.39974 | 24299 ft | 460 kts | 51° |
| 2026-04-23 18:59 | 29.85480 | -12.36912 | 24684 ft | 464 kts | 51° |
| 2026-04-23 19:00 | 29.87300 | -12.33828 | 25061 ft | 467 kts | 50° |
| 2026-04-23 19:00 | 29.89133 | -12.30723 | 25424 ft | 471 kts | 50° |
| 2026-04-23 19:00 | 29.90977 | -12.27593 | 25795 ft | 474 kts | 50° |
| 2026-04-23 19:00 | 29.92836 | -12.24437 | 26152 ft | 477 kts | 50° |
| 2026-04-23 19:01 | 29.94073 | -12.22336 | 26380 ft | 479 kts | 50° |
| 2026-04-23 19:01 | 29.95948 | -12.19147 | 26741 ft | 482 kts | 50° |
| 2026-04-23 19:01 | 29.97834 | -12.15939 | 27084 ft | 485 kts | 50° |
| 2026-04-23 19:01 | 30.00357 | -12.11654 | 27523 ft | 489 kts | 49° |
| 2026-04-23 19:02 | 30.01740 | -12.09548 | 27735 ft | 486 kts | 43° |
| 2026-04-23 19:02 | 30.04857 | -12.05875 | 28189 ft | 484 kts | 37° |
| 2026-04-23 19:02 | 30.06501 | -12.04061 | 28409 ft | 485 kts | 37° |
| 2026-04-23 19:02 | 30.08967 | -12.01374 | 28636 ft | 490 kts | 36° |
| 2026-04-23 19:03 | 30.11454 | -11.98663 | 28936 ft | 493 kts | 36° |
| 2026-04-23 19:03 | 30.13942 | -11.95931 | 29285 ft | 495 kts | 37° |
| 2026-04-23 19:03 | 30.16401 | -11.93207 | 29598 ft | 497 kts | 37° |
| 2026-04-23 19:03 | 30.18929 | -11.90388 | 29888 ft | 500 kts | 37° |
| 2026-04-23 19:04 | 30.21437 | -11.87579 | 30152 ft | 503 kts | 37° |
| 2026-04-23 19:04 | 30.23954 | -11.84752 | 30400 ft | 506 kts | 37° |
| 2026-04-23 19:04 | 30.26444 | -11.81949 | 30669 ft | 507 kts | 37° |
| 2026-04-23 19:04 | 30.29005 | -11.79062 | 30946 ft | 508 kts | 37° |
| 2026-04-23 19:05 | 30.31505 | -11.76245 | 31201 ft | 509 kts | 37° |
| 2026-04-23 19:05 | 30.34043 | -11.73382 | 31486 ft | 509 kts | 37° |
| 2026-04-23 19:05 | 30.36575 | -11.70525 | 31858 ft | 507 kts | 37° |
| 2026-04-23 19:05 | 30.39095 | -11.67679 | 32250 ft | 505 kts | 37° |
| 2026-04-23 19:06 | 30.41606 | -11.64841 | 32607 ft | 504 kts | 37° |
| 2026-04-23 19:06 | 30.44113 | -11.62008 | 32957 ft | 503 kts | 37° |
| 2026-04-23 19:06 | 30.46624 | -11.59171 | 33187 ft | 505 kts | 37° |
| 2026-04-23 19:06 | 30.49142 | -11.56324 | 33452 ft | 505 kts | 37° |
| 2026-04-23 19:07 | 30.51652 | -11.53483 | 33815 ft | 504 kts | 37° |
| 2026-04-23 19:07 | 30.54150 | -11.50649 | 34182 ft | 501 kts | 37° |
| 2026-04-23 19:07 | 30.56638 | -11.47825 | 34452 ft | 500 kts | 37° |
| 2026-04-23 19:07 | 30.59129 | -11.45000 | 34641 ft | 501 kts | 37° |
| 2026-04-23 19:08 | 30.61627 | -11.42164 | 34830 ft | 503 kts | 37° |
| 2026-04-23 19:08 | 30.64122 | -11.39329 | 35063 ft | 502 kts | 37° |
| 2026-04-23 19:08 | 30.66617 | -11.36491 | 35319 ft | 501 kts | 37° |
| 2026-04-23 19:08 | 30.69106 | -11.33656 | 35548 ft | 501 kts | 37° |
| 2026-04-23 19:09 | 30.71600 | -11.30815 | 35737 ft | 502 kts | 37° |
| 2026-04-23 19:09 | 30.74095 | -11.27971 | 35895 ft | 503 kts | 37° |
| 2026-04-23 19:09 | 30.76597 | -11.25116 | 36138 ft | 504 kts | 37° |
| 2026-04-23 19:09 | 30.79097 | -11.22262 | 36348 ft | 504 kts | 37° |
| 2026-04-23 19:10 | 30.81596 | -11.19405 | 36583 ft | 503 kts | 38° |
| 2026-04-23 19:10 | 30.84088 | -11.16553 | 36813 ft | 502 kts | 38° |
| 2026-04-23 19:10 | 30.86577 | -11.13704 | 37014 ft | 502 kts | 38° |
| 2026-04-23 19:10 | 30.89066 | -11.10852 | 37224 ft | 502 kts | 38° |
| 2026-04-23 19:11 | 30.91549 | -11.08005 | 37464 ft | 501 kts | 38° |
| 2026-04-23 19:11 | 30.93994 | -11.05199 | 37692 ft | 500 kts | 38° |
| 2026-04-23 19:11 | 30.96468 | -11.02359 | 37870 ft | 500 kts | 38° |
| 2026-04-23 19:11 | 30.98947 | -10.99511 | 38020 ft | 500 kts | 38° |
| 2026-04-23 19:12 | 31.01428 | -10.96660 | 38060 ft | 503 kts | 38° |
| 2026-04-23 19:12 | 31.06410 | -10.90926 | 38106 ft | 502 kts | 38° |
| 2026-04-23 19:13 | 31.11363 | -10.85212 | 38068 ft | 500 kts | 38° |
| 2026-04-23 19:13 | 31.16293 | -10.79516 | 38055 ft | 498 kts | 38° |
| 2026-04-23 19:14 | 31.21201 | -10.73839 | 38058 ft | 496 kts | 38° |
| 2026-04-23 19:14 | 31.26096 | -10.68169 | 38061 ft | 494 kts | 38° |
| 2026-04-23 19:15 | 31.30978 | -10.62507 | 38064 ft | 494 kts | 38° |
| 2026-04-23 19:15 | 31.35861 | -10.56834 | 38034 ft | 495 kts | 39° |
| 2026-04-23 19:16 | 31.40754 | -10.51141 | 38060 ft | 497 kts | 39° |
| 2026-04-23 19:16 | 31.45655 | -10.45428 | 38067 ft | 498 kts | 39° |
| 2026-04-23 19:17 | 31.53027 | -10.36819 | 38063 ft | 500 kts | 39° |
| 2026-04-23 19:17 | 31.57950 | -10.31057 | 38062 ft | 501 kts | 39° |
| 2026-04-23 19:18 | 31.62880 | -10.25279 | 38061 ft | 501 kts | 39° |
| 2026-04-23 19:18 | 31.67812 | -10.19488 | 38078 ft | 502 kts | 40° |
| 2026-04-23 19:19 | 31.75214 | -10.10781 | 38058 ft | 502 kts | 40° |
| 2026-04-23 19:20 | 31.82602 | -10.02069 | 38059 ft | 501 kts | 40° |
| 2026-04-23 19:20 | 31.87516 | -9.96263 | 38052 ft | 500 kts | 40° |
| 2026-04-23 19:21 | 31.94869 | -9.87557 | 38059 ft | 499 kts | 40° |
| 2026-04-23 19:22 | 31.99765 | -9.81751 | 38043 ft | 500 kts | 41° |
| 2026-04-23 19:22 | 32.07059 | -9.73080 | 38054 ft | 498 kts | 41° |
| 2026-04-23 19:23 | 32.11934 | -9.67274 | 38054 ft | 498 kts | 41° |
| 2026-04-23 19:24 | 32.19235 | -9.58562 | 38058 ft | 498 kts | 41° |
| 2026-04-23 19:24 | 32.26532 | -9.49833 | 38093 ft | 498 kts | 42° |
| 2026-04-23 19:25 | 32.36262 | -9.38161 | 38051 ft | 499 kts | 42° |
| 2026-04-23 19:26 | 32.43564 | -9.29376 | 38052 ft | 499 kts | 42° |
| 2026-04-23 19:27 | 32.55743 | -9.14675 | 38097 ft | 501 kts | 43° |
| 2026-04-23 19:28 | 32.65513 | -9.02838 | 38050 ft | 502 kts | 43° |
| 2026-04-23 19:29 | 32.72797 | -8.93985 | 38046 ft | 502 kts | 43° |
| 2026-04-23 19:30 | 32.80097 | -8.85093 | 38062 ft | 501 kts | 43° |
| 2026-04-23 19:31 | 32.87380 | -8.76200 | 38062 ft | 500 kts | 44° |
| 2026-04-23 19:31 | 32.92223 | -8.70272 | 38050 ft | 499 kts | 44° |
| 2026-04-23 19:32 | 32.97057 | -8.64347 | 38057 ft | 498 kts | 44° |
| 2026-04-23 19:32 | 33.01878 | -8.58428 | 38056 ft | 497 kts | 44° |
| 2026-04-23 19:33 | 33.06686 | -8.52513 | 38050 ft | 497 kts | 44° |
| 2026-04-23 19:33 | 33.13885 | -8.43639 | 38042 ft | 496 kts | 44° |
| 2026-04-23 19:34 | 33.18694 | -8.37744 | 38054 ft | 495 kts | 41° |
| 2026-04-23 19:34 | 33.24209 | -8.32936 | 38059 ft | 490 kts | 28° |
| 2026-04-23 19:35 | 33.27113 | -8.30798 | 38040 ft | 490 kts | 28° |
| 2026-04-23 19:35 | 33.32930 | -8.26539 | 38056 ft | 491 kts | 28° |
| 2026-04-23 19:36 | 33.38741 | -8.22214 | 38055 ft | 493 kts | 28° |
| 2026-04-23 19:36 | 33.44547 | -8.17836 | 38055 ft | 494 kts | 29° |
| 2026-04-23 19:37 | 33.50361 | -8.13429 | 38058 ft | 495 kts | 29° |
| 2026-04-23 19:37 | 33.56144 | -8.09039 | 38059 ft | 496 kts | 29° |
| 2026-04-23 19:38 | 33.61973 | -8.04611 | 38053 ft | 496 kts | 29° |
| 2026-04-23 19:38 | 33.67843 | -8.00145 | 38056 ft | 496 kts | 29° |
| 2026-04-23 19:39 | 33.73671 | -7.95705 | 38055 ft | 496 kts | 30° |
| 2026-04-23 19:39 | 33.79454 | -7.91291 | 38055 ft | 496 kts | 30° |
| 2026-04-23 19:40 | 33.85271 | -7.86844 | 38051 ft | 495 kts | 30° |
| 2026-04-23 19:40 | 33.91073 | -7.82401 | 38054 ft | 494 kts | 30° |
| 2026-04-23 19:41 | 33.96866 | -7.77958 | 38053 ft | 493 kts | 30° |
| 2026-04-23 19:41 | 34.02651 | -7.73514 | 38062 ft | 493 kts | 31° |
| 2026-04-23 19:42 | 34.08426 | -7.69070 | 38062 ft | 492 kts | 31° |
| 2026-04-23 19:42 | 34.14197 | -7.64622 | 38067 ft | 492 kts | 31° |
| 2026-04-23 19:43 | 34.19956 | -7.60176 | 38054 ft | 491 kts | 31° |
| 2026-04-23 19:43 | 34.25704 | -7.55732 | 38087 ft | 490 kts | 31° |
| 2026-04-23 19:44 | 34.31440 | -7.51289 | 38069 ft | 490 kts | 31° |
| 2026-04-23 19:44 | 34.37176 | -7.46838 | 38063 ft | 489 kts | 31° |
| 2026-04-23 19:45 | 34.42902 | -7.42389 | 38067 ft | 489 kts | 31° |
| 2026-04-23 19:45 | 34.48620 | -7.37938 | 38069 ft | 488 kts | 31° |
| 2026-04-23 19:46 | 34.54333 | -7.33484 | 38079 ft | 488 kts | 32° |
| 2026-04-23 19:46 | 34.60047 | -7.29021 | 38069 ft | 488 kts | 32° |
| 2026-04-23 19:47 | 34.64795 | -7.25308 | 38065 ft | 488 kts | 32° |
| 2026-04-23 19:47 | 34.71468 | -7.20079 | 38055 ft | 488 kts | 32° |
| 2026-04-23 19:48 | 34.77131 | -7.15635 | 38066 ft | 488 kts | 32° |
| 2026-04-23 19:48 | 34.82829 | -7.11155 | 38072 ft | 488 kts | 32° |
| 2026-04-23 19:49 | 34.88529 | -7.06666 | 38067 ft | 488 kts | 32° |
| 2026-04-23 19:49 | 34.94225 | -7.02173 | 38068 ft | 488 kts | 32° |
| 2026-04-23 19:50 | 34.99917 | -6.97675 | 38059 ft | 488 kts | 32° |
| 2026-04-23 19:50 | 35.04683 | -6.93903 | 38063 ft | 487 kts | 32° |
| 2026-04-23 19:51 | 35.10371 | -6.89395 | 38066 ft | 487 kts | 32° |
| 2026-04-23 19:51 | 35.16056 | -6.84881 | 38062 ft | 487 kts | 32° |
| 2026-04-23 19:52 | 35.21731 | -6.80367 | 38055 ft | 486 kts | 32° |
| 2026-04-23 19:52 | 35.27402 | -6.75848 | 37806 ft | 490 kts | 32° |
| 2026-04-23 19:52 | 35.30270 | -6.73560 | 37287 ft | 491 kts | 33° |
| 2026-04-23 19:53 | 35.33119 | -6.71287 | 36722 ft | 489 kts | 33° |
| 2026-04-23 19:53 | 35.35965 | -6.69022 | 36127 ft | 488 kts | 32° |
| 2026-04-23 19:53 | 35.38838 | -6.66789 | 35431 ft | 490 kts | 32° |
| 2026-04-23 19:53 | 35.41691 | -6.64601 | 34810 ft | 491 kts | 32° |
| 2026-04-23 19:54 | 35.44592 | -6.62385 | 34243 ft | 490 kts | 32° |
| 2026-04-23 19:54 | 35.47473 | -6.60180 | 33730 ft | 487 kts | 32° |
| 2026-04-23 19:54 | 35.50334 | -6.57982 | 33238 ft | 483 kts | 32° |
| 2026-04-23 19:54 | 35.53165 | -6.55801 | 32775 ft | 479 kts | 33° |
| 2026-04-23 19:55 | 35.55972 | -6.53632 | 32314 ft | 474 kts | 33° |
| 2026-04-23 19:55 | 35.58751 | -6.51482 | 31883 ft | 470 kts | 33° |
| 2026-04-23 19:55 | 35.61508 | -6.49345 | 31441 ft | 466 kts | 33° |
| 2026-04-23 19:55 | 35.64238 | -6.47229 | 31006 ft | 463 kts | 33° |
| 2026-04-23 19:56 | 35.66948 | -6.45125 | 30564 ft | 459 kts | 33° |
| 2026-04-23 19:56 | 35.69639 | -6.43036 | 30145 ft | 455 kts | 33° |
| 2026-04-23 19:56 | 35.72304 | -6.40965 | 29656 ft | 451 kts | 33° |
| 2026-04-23 19:56 | 35.74943 | -6.38913 | 29196 ft | 447 kts | 33° |
| 2026-04-23 19:57 | 35.77559 | -6.36876 | 28741 ft | 442 kts | 33° |
| 2026-04-23 19:57 | 35.80147 | -6.34861 | 28310 ft | 438 kts | 33° |
| 2026-04-23 19:57 | 35.82708 | -6.32865 | 27862 ft | 434 kts | 33° |
| 2026-04-23 19:57 | 35.85224 | -6.30854 | 27545 ft | 427 kts | 35° |
| 2026-04-23 19:58 | 35.87660 | -6.28798 | 27148 ft | 423 kts | 36° |
| 2026-04-23 19:58 | 35.90063 | -6.26722 | 26729 ft | 420 kts | 36° |
| 2026-04-23 19:58 | 35.92441 | -6.24658 | 26328 ft | 417 kts | 36° |
| 2026-04-23 19:58 | 35.94806 | -6.22611 | 25911 ft | 414 kts | 36° |
| 2026-04-23 19:59 | 35.97161 | -6.20583 | 25497 ft | 412 kts | 36° |
| 2026-04-23 19:59 | 35.99506 | -6.18569 | 25084 ft | 410 kts | 36° |
| 2026-04-23 19:59 | 36.01840 | -6.16567 | 24667 ft | 408 kts | 36° |
| 2026-04-23 19:59 | 36.04169 | -6.14571 | 24252 ft | 406 kts | 36° |
| 2026-04-23 20:00 | 36.06488 | -6.12583 | 23819 ft | 405 kts | 36° |
| 2026-04-23 20:00 | 36.08801 | -6.10598 | 23361 ft | 404 kts | 36° |
| 2026-04-23 20:00 | 36.11104 | -6.08620 | 22895 ft | 402 kts | 35° |
| 2026-04-23 20:00 | 36.13389 | -6.06656 | 22467 ft | 399 kts | 35° |
| 2026-04-23 20:01 | 36.15659 | -6.04703 | 22061 ft | 396 kts | 36° |
| 2026-04-23 20:01 | 36.17915 | -6.02762 | 21640 ft | 394 kts | 36° |
| 2026-04-23 20:01 | 36.20157 | -6.00830 | 21250 ft | 391 kts | 36° |
| 2026-04-23 20:01 | 36.22390 | -5.98913 | 20851 ft | 390 kts | 34° |
| 2026-04-23 20:02 | 36.24762 | -5.97283 | 20434 ft | 389 kts | 23° |
| 2026-04-23 20:02 | 36.27297 | -5.96187 | 20109 ft | 384 kts | 17° |
| 2026-04-23 20:02 | 36.29851 | -5.95235 | 19717 ft | 382 kts | 16° |
| 2026-04-23 20:02 | 36.32385 | -5.94313 | 19327 ft | 381 kts | 16° |
| 2026-04-23 20:03 | 36.34933 | -5.93384 | 18919 ft | 379 kts | 16° |
| 2026-04-23 20:03 | 36.37460 | -5.92453 | 18515 ft | 379 kts | 16° |
| 2026-04-23 20:03 | 36.39982 | -5.91515 | 18087 ft | 378 kts | 16° |
| 2026-04-23 20:03 | 36.42490 | -5.90575 | 17656 ft | 376 kts | 17° |
| 2026-04-23 20:04 | 36.44983 | -5.89636 | 17262 ft | 373 kts | 17° |
| 2026-04-23 20:04 | 36.47462 | -5.88699 | 16854 ft | 371 kts | 17° |
| 2026-04-23 20:04 | 36.49889 | -5.87779 | 16468 ft | 369 kts | 17° |
| 2026-04-23 20:04 | 36.52333 | -5.86851 | 16081 ft | 366 kts | 17° |
| 2026-04-23 20:05 | 36.54765 | -5.85928 | 15694 ft | 364 kts | 17° |
| 2026-04-23 20:05 | 36.57183 | -5.85009 | 15299 ft | 362 kts | 17° |
| 2026-04-23 20:05 | 36.59586 | -5.84095 | 14915 ft | 361 kts | 17° |
| 2026-04-23 20:05 | 36.61980 | -5.83185 | 14537 ft | 359 kts | 17° |
| 2026-04-23 20:06 | 36.64363 | -5.82278 | 14150 ft | 358 kts | 17° |
| 2026-04-23 20:06 | 36.66738 | -5.81373 | 13754 ft | 356 kts | 17° |
| 2026-04-23 20:06 | 36.69100 | -5.80472 | 13329 ft | 354 kts | 17° |
| 2026-04-23 20:06 | 36.71452 | -5.79575 | 12942 ft | 352 kts | 17° |
| 2026-04-23 20:07 | 36.73786 | -5.78685 | 12561 ft | 350 kts | 17° |
| 2026-04-23 20:07 | 36.76105 | -5.77799 | 12181 ft | 347 kts | 17° |
| 2026-04-23 20:07 | 36.78407 | -5.76919 | 11810 ft | 345 kts | 17° |
| 2026-04-23 20:07 | 36.80695 | -5.76044 | 11444 ft | 343 kts | 17° |
| 2026-04-23 20:08 | 36.82970 | -5.75173 | 11074 ft | 341 kts | 17° |
| 2026-04-23 20:08 | 36.85232 | -5.74307 | 10712 ft | 339 kts | 17° |
| 2026-04-23 20:08 | 36.87473 | -5.73448 | 10468 ft | 333 kts | 17° |
| 2026-04-23 20:08 | 36.89658 | -5.72611 | 10316 ft | 325 kts | 17° |
| 2026-04-23 20:09 | 36.91789 | -5.71793 | 10168 ft | 316 kts | 17° |
| 2026-04-23 20:09 | 36.93863 | -5.70997 | 10023 ft | 308 kts | 17° |
| 2026-04-23 20:09 | 36.95875 | -5.70225 | 9913 ft | 299 kts | 17° |
| 2026-04-23 20:09 | 36.97886 | -5.69452 | 9476 ft | 302 kts | 17° |
| 2026-04-23 20:10 | 36.99211 | -5.68943 | 9270 ft | 301 kts | 17° |
| 2026-04-23 20:10 | 37.01877 | -5.67917 | 8864 ft | 298 kts | 17° |
| 2026-04-23 20:10 | 37.03856 | -5.67156 | 8563 ft | 297 kts | 18° |
| 2026-04-23 20:10 | 37.05823 | -5.66398 | 8270 ft | 295 kts | 18° |
| 2026-04-23 20:11 | 37.07756 | -5.65654 | 7991 ft | 293 kts | 18° |
| 2026-04-23 20:11 | 37.09699 | -5.64904 | 7697 ft | 292 kts | 18° |
| 2026-04-23 20:11 | 37.11633 | -5.64159 | 7412 ft | 290 kts | 19° |
| 2026-04-23 20:11 | 37.13555 | -5.63417 | 7129 ft | 288 kts | 19° |
| 2026-04-23 20:12 | 37.15466 | -5.62679 | 6845 ft | 286 kts | 19° |
| 2026-04-23 20:12 | 37.17366 | -5.61955 | 6570 ft | 285 kts | 17° |
| 2026-04-23 20:12 | 37.19339 | -5.61632 | 6215 ft | 288 kts | 3° |
| 2026-04-23 20:12 | 37.21334 | -5.61570 | 5913 ft | 286 kts | 4° |
| 2026-04-23 20:13 | 37.23317 | -5.61470 | 5615 ft | 284 kts | 5° |
| 2026-04-23 20:13 | 37.25282 | -5.61349 | 5318 ft | 282 kts | 4° |
| 2026-04-23 20:13 | 37.27240 | -5.61219 | 5033 ft | 281 kts | 5° |
| 2026-04-23 20:13 | 37.29186 | -5.61087 | 4749 ft | 279 kts | 4° |
| 2026-04-23 20:14 | 37.31119 | -5.60955 | 4442 ft | 278 kts | 5° |
| 2026-04-23 20:14 | 37.33028 | -5.60822 | 4152 ft | 272 kts | 4° |
| 2026-04-23 20:14 | 37.34892 | -5.60693 | 3935 ft | 266 kts | 3° |
| 2026-04-23 20:14 | 37.36737 | -5.60566 | 3697 ft | 265 kts | 2° |
| 2026-04-23 20:15 | 37.38568 | -5.60442 | 3506 ft | 261 kts | 1° |
| 2026-04-23 20:15 | 37.40298 | -5.60844 | 3355 ft | 251 kts | 328° |
| 2026-04-23 20:15 | 37.41426 | -5.62373 | 3265 ft | 236 kts | 290° |
| 2026-04-23 20:15 | 37.41731 | -5.64330 | 3201 ft | 224 kts | 275° |
| 2026-04-23 20:16 | 37.41867 | -5.66242 | 3082 ft | 215 kts | 271° |
| 2026-04-23 20:16 | 37.41900 | -5.68086 | 2994 ft | 208 kts | 268° |
| 2026-04-23 20:16 | 37.41893 | -5.69876 | 2836 ft | 202 kts | 268° |
| 2026-04-23 20:16 | 37.41880 | -5.71627 | 2583 ft | 198 kts | 266° |
| 2026-04-23 20:17 | 37.41870 | -5.73340 | 2312 ft | 195 kts | 265° |
| 2026-04-23 20:17 | 37.41860 | -5.75025 | 2059 ft | 190 kts | 266° |
| 2026-04-23 20:17 | 37.41852 | -5.76666 | 1814 ft | 185 kts | 267° |
| 2026-04-23 20:17 | 37.41844 | -5.78257 | 1557 ft | 177 kts | 267° |
| 2026-04-23 20:18 | 37.41838 | -5.79757 | 1341 ft | 166 kts | 267° |
| 2026-04-23 20:18 | 37.41831 | -5.81153 | 1130 ft | 156 kts | 266° |
| 2026-04-23 20:18 | 37.41825 | -5.82461 | 944 ft | 142 kts | 266° |
| 2026-04-23 20:18 | 37.41819 | -5.83671 | 751 ft | 134 kts | 265° |
| 2026-04-23 20:19 | 37.41813 | -5.84853 | 576 ft | 137 kts | 266° |
| 2026-04-23 20:19 | 37.41809 | -5.86072 | 392 ft | 141 kts | 265° |
| 2026-04-23 20:19 | 37.41797 | -5.87297 | 201 ft | 138 kts | 265° |
| 2026-04-23 20:19 | 37.41793 | -5.88455 | 106 ft | 123 kts | 266° |
| 2026-04-23 20:20 | 37.41793 | -5.89363 | 99 ft | 83 kts | 270° |
| 2026-04-23 20:20 | 37.41798 | -5.89714 | 99 ft | 23 kts | 280° |
| 2026-04-23 20:20 | 37.41882 | -5.89820 | 98 ft | 13 kts | 337° |
| 2026-04-23 20:20 | 37.41945 | -5.89853 | 96 ft | 0 kts | 337° |
| 2026-04-23 20:21 | 37.41950 | -5.89856 | 97 ft | 2 kts | 337° |
| 2026-04-23 20:21 | 37.41967 | -5.89865 | 96 ft | 4 kts | 337° |
| 2026-04-23 20:21 | 37.42005 | -5.89885 | 96 ft | 8 kts | 336° |
| 2026-04-23 20:21 | 37.42067 | -5.89918 | 95 ft | 10 kts | 337° |
| 2026-04-23 20:22 | 37.42132 | -5.89919 | 93 ft | 10 kts | 33° |
| 2026-04-23 20:22 | 37.42181 | -5.89863 | 93 ft | 7 kts | 43° |
| 2026-04-23 20:22 | 37.42204 | -5.89864 | 93 ft | 3 kts | 323° |
| 2026-04-23 20:22 | 37.42224 | -5.89887 | 93 ft | 4 kts | 315° |
| 2026-04-23 20:23 | 37.42239 | -5.89906 | 93 ft | 2 kts | 315° |
| 2026-04-23 20:23 | 37.42245 | -5.89914 | 95 ft | 0 kts | 315° |
| 2026-04-23 20:40 | 37.42245 | -5.89913 | 93 ft | 0 kts | 315° |
| 2026-04-23 20:44 | 37.42244 | -5.89913 | 93 ft | 0 kts | 315° |